Archival Weather

Heathrow

London, United Kingdom (EGLL)

Report from: Wednesday, December 6, 2023 2:50 PM GMT
Current time: Saturday, March 2, 2024 9:02 AM GMT

Current weather – Weather history – Daily summaries
Weather forecast

Temperature4.0°C (39.2°F)
Dew point3.0°C (37.4°F)
Winds 1 kts (0.5 m/s, 1.2 mph) East-Southeast (120°)
Visibility6.2 mi. (10 km)
Clouds Sky clear
Altimeter30.03 in.Hg (1017 mB)
Relative humidity93 %
Density altitude-1,348 ft. (-411 m)
Remarks Fully automated report
Corrected report
No clouds detected
No significant changes expected in the next two hours
Flight conditions Visual Meteorological Conditions
Raw dataCOR EGLL 061450Z AUTO 12001KT 9999 NCD 04/03 Q1017 NOSIG
An error has occurred. This application may no longer respond until reloaded. Reload 🗙